Time;durP1;ratioP1;P1;durP2;ratioP2;P2;SDS_P1;SDS_P2;PMS_P1;PMS_P2;Temp;Humidity;BMP_temperature;BMP_pressure;BME280_temperature;BME280_humidity;BME280_pressure;Samples;Min_cycle;Max_cycle;Signal;HPM_P1;HPM_P2
2023/01/25 00:01:48;;;;;;;0.10;0.10;;;1.80;99.90;12.80;163505.00;;;;4978869;28;20215;-75
2023/01/25 00:04:16;;;;;;;0.10;0.10;;;1.70;99.90;12.80;163505.00;;;;4992017;28;20577;-77
2023/01/25 00:06:44;;;;;;;0.10;0.10;;;1.60;99.90;12.80;163505.00;;;;4988903;28;20224;-76
2023/01/25 00:09:13;;;;;;;0.10;0.10;;;1.60;99.90;12.80;163505.00;;;;5003701;28;20205;-76
2023/01/25 00:11:43;;;;;;;0.10;0.10;;;1.60;99.90;12.80;163505.00;;;;4992463;28;20201;-77
2023/01/25 00:14:11;;;;;;;0.10;0.10;;;1.60;99.90;12.80;163505.00;;;;4998895;28;20204;-75
2023/01/25 00:16:40;;;;;;;0.10;0.10;;;1.60;99.90;12.80;163505.00;;;;4983431;28;20176;-75
2023/01/25 00:19:11;;;;;;;0.00;0.00;;;1.50;99.90;12.80;163505.00;;;;4997645;28;20209;-76
2023/01/25 00:21:40;;;;;;;0.10;0.10;;;1.60;99.90;12.80;163505.00;;;;4980852;28;20708;-76
2023/01/25 00:24:10;;;;;;;0.10;0.10;;;1.60;99.90;12.80;163505.00;;;;4997994;28;20295;-75
2023/01/25 00:26:38;;;;;;;0.10;0.10;;;1.60;99.90;12.80;163505.00;;;;4996328;28;20256;-76
2023/01/25 00:29:13;;;;;;;0.10;0.10;;;1.60;99.90;12.80;163505.00;;;;4989147;28;20196;-77
2023/01/25 00:31:53;;;;;;;0.10;0.10;;;1.60;99.90;12.80;163505.00;;;;4995323;28;20208;-75
2023/01/25 00:34:45;;;;;;;0.10;0.10;;;1.60;99.90;12.80;163505.00;;;;4991431;28;20211;-75
2023/01/25 00:37:29;;;;;;;0.10;0.10;;;1.60;99.90;12.80;163505.00;;;;4988797;28;20204;-75
2023/01/25 00:39:57;;;;;;;0.10;0.10;;;1.50;99.90;12.80;163505.00;;;;4983478;28;20224;-75
2023/01/25 00:42:25;;;;;;;0.10;0.10;;;1.50;99.90;12.80;163505.00;;;;4989721;28;20201;-74
2023/01/25 00:44:53;;;;;;;0.10;0.10;;;1.50;99.90;12.80;163505.00;;;;5016809;28;20193;-78
2023/01/25 00:47:22;;;;;;;0.10;0.10;;;1.50;99.90;12.80;163505.00;;;;5008183;28;20204;-76
2023/01/25 00:49:51;;;;;;;0.10;0.10;;;1.50;99.90;12.80;163505.00;;;;5004725;28;20272;-76
2023/01/25 00:52:20;;;;;;;0.10;0.10;;;1.50;99.90;12.80;163505.00;;;;4997010;28;20224;-77
2023/01/25 00:54:49;;;;;;;0.10;0.10;;;1.50;99.90;12.80;163505.00;;;;4999325;28;20407;-76
2023/01/25 00:57:17;;;;;;;0.10;0.10;;;1.50;99.90;12.80;163505.00;;;;5004408;28;20204;-76
2023/01/25 00:59:46;;;;;;;0.08;0.08;;;1.50;99.90;12.80;163505.00;;;;4994420;28;20235;-75
2023/01/25 01:02:15;;;;;;;0.10;0.10;;;1.50;99.90;12.80;163505.00;;;;4996810;28;20193;-75
2023/01/25 01:04:43;;;;;;;0.10;0.10;;;1.50;99.90;12.80;163505.00;;;;4996243;28;20240;-75
2023/01/25 01:07:14;;;;;;;0.10;0.10;;;1.50;99.90;12.80;163505.00;;;;5005922;28;20197;-76
2023/01/25 01:09:42;;;;;;;0.10;0.10;;;1.50;99.90;12.80;163505.00;;;;4994685;28;20211;-76
2023/01/25 01:12:10;;;;;;;0.00;0.00;;;1.50;99.90;12.80;163505.00;;;;4997940;28;20186;-75
2023/01/25 01:14:39;;;;;;;0.10;0.10;;;1.50;99.90;12.80;163505.00;;;;5005079;28;20197;-76
2023/01/25 01:17:06;;;;;;;0.10;0.10;;;1.40;99.90;12.80;163505.00;;;;4997471;28;20221;-75
2023/01/25 01:19:35;;;;;;;0.10;0.10;;;1.50;99.90;12.80;163505.00;;;;5001941;28;20228;-75
2023/01/25 01:22:03;;;;;;;0.10;0.10;;;1.50;99.90;12.80;163505.00;;;;4975707;28;20273;-75
2023/01/25 01:24:32;;;;;;;0.10;0.10;;;1.50;99.90;12.80;163505.00;;;;5010378;28;20712;-75
2023/01/25 01:27:00;;;;;;;0.10;0.10;;;1.40;99.90;12.80;163505.00;;;;5004720;28;20201;-75
2023/01/25 01:29:28;;;;;;;0.10;0.10;;;1.40;99.90;12.80;163505.00;;;;4994645;28;20245;-75
2023/01/25 01:31:56;;;;;;;0.10;0.10;;;1.40;99.90;12.80;163505.00;;;;4998958;28;20217;-75
2023/01/25 01:34:26;;;;;;;0.00;0.00;;;1.40;99.90;12.80;163505.00;;;;5004884;28;20714;-75
2023/01/25 01:36:55;;;;;;;0.10;0.10;;;1.40;99.90;12.80;163505.00;;;;5003028;28;20236;-76
2023/01/25 01:39:23;;;;;;;0.10;0.10;;;1.40;99.90;12.80;163505.00;;;;4994447;28;20224;-77
2023/01/25 01:41:54;;;;;;;0.10;0.10;;;1.40;99.90;12.80;163505.00;;;;5005949;28;20222;-76
2023/01/25 01:44:47;;;;;;;0.10;0.10;;;1.40;99.90;12.80;163505.00;;;;4996877;28;20193;-76
2023/01/25 01:47:22;;;;;;;0.10;0.10;;;1.50;99.90;12.80;163505.00;;;;5004284;28;20215;-76
2023/01/25 01:50:01;;;;;;;0.10;0.10;;;1.40;99.90;12.80;163505.00;;;;5000635;28;20224;-76
2023/01/25 01:52:36;;;;;;;0.10;0.10;;;1.40;99.90;12.80;163505.00;;;;5015630;28;20193;-77
2023/01/25 01:55:12;;;;;;;0.10;0.10;;;1.40;99.90;12.80;163505.00;;;;5005978;28;20193;-77
2023/01/25 01:57:48;;;;;;;0.10;0.10;;;1.40;99.90;12.80;163505.00;;;;5002215;28;20193;-76
2023/01/25 02:00:23;;;;;;;0.10;0.10;;;1.40;99.90;12.80;163505.00;;;;4997337;28;20267;-75
2023/01/25 02:02:52;;;;;;;0.10;0.10;;;1.50;99.90;12.80;163505.00;;;;4989347;28;20272;-75
2023/01/25 02:05:30;;;;;;;0.10;0.10;;;1.50;99.90;12.80;163505.00;;;;4991263;28;20733;-75
2023/01/25 02:08:02;;;;;;;0.10;0.10;;;1.40;99.90;12.80;163505.00;;;;4987421;28;20228;-75
2023/01/25 02:10:33;;;;;;;0.10;0.10;;;1.40;99.90;12.80;163505.00;;;;4993103;28;20311;-75
2023/01/25 02:13:01;;;;;;;0.10;0.10;;;1.40;99.90;12.80;163505.00;;;;4984277;28;20327;-76
2023/01/25 02:15:39;;;;;;;0.10;0.10;;;1.30;99.90;12.80;163505.00;;;;5008990;28;20285;-75
2023/01/25 02:18:08;;;;;;;0.10;0.10;;;1.30;99.90;12.80;163505.00;;;;4980852;28;20197;-75
2023/01/25 02:20:41;;;;;;;0.10;0.10;;;1.30;99.90;12.80;163505.00;;;;4993352;28;20224;-75
2023/01/25 02:23:20;;;;;;;0.10;0.10;;;1.30;99.90;12.80;163505.00;;;;4979171;28;20209;-76
2023/01/25 02:25:50;;;;;;;0.10;0.10;;;1.30;99.90;12.80;163505.00;;;;4969651;28;20730;-74
2023/01/25 02:28:27;;;;;;;0.10;0.10;;;1.40;99.90;12.80;163505.00;;;;4989516;28;20215;-76
2023/01/25 02:30:59;;;;;;;0.10;0.10;;;1.40;99.90;12.80;163505.00;;;;5004729;28;20236;-77
2023/01/25 02:33:28;;;;;;;0.10;0.10;;;1.40;99.90;12.80;163505.00;;;;5025309;28;20185;-78
2023/01/25 02:36:16;;;;;;;0.10;0.10;;;1.40;99.90;12.80;163505.00;;;;5002987;28;20212;-80
2023/01/25 02:38:52;;;;;;;0.10;0.10;;;1.40;99.90;12.80;163505.00;;;;4984065;28;20208;-75
2023/01/25 02:41:29;;;;;;;0.00;0.00;;;1.40;99.90;12.80;163505.00;;;;4978987;28;20303;-77
2023/01/25 02:43:58;;;;;;;0.10;0.10;;;1.40;99.90;12.80;163505.00;;;;4980784;28;20200;-74
2023/01/25 02:46:30;;;;;;;0.10;0.10;;;1.40;99.90;12.80;163505.00;;;;4974920;28;20679;-76
2023/01/25 02:49:05;;;;;;;0.10;0.10;;;1.30;99.90;12.80;163505.00;;;;4985342;28;20196;-76
2023/01/25 02:51:36;;;;;;;0.10;0.10;;;1.40;99.90;12.80;163505.00;;;;4974800;28;20228;-76
2023/01/25 02:54:09;;;;;;;0.10;0.10;;;1.40;99.90;12.80;163505.00;;;;4981399;28;20658;-76
2023/01/25 02:56:40;;;;;;;0.10;0.10;;;1.30;99.90;12.80;163505.00;;;;4970304;28;20200;-75
2023/01/25 02:59:12;;;;;;;0.10;0.10;;;1.30;99.90;12.80;163505.00;;;;4984640;28;20212;-76
2023/01/25 03:01:43;;;;;;;0.10;0.10;;;1.10;99.90;12.80;163505.00;;;;4983481;28;20259;-76
2023/01/25 03:04:15;;;;;;;0.08;0.08;;;1.20;99.90;12.80;163505.00;;;;5016764;28;20236;-75
2023/01/25 03:06:44;;;;;;;0.00;0.00;;;1.20;99.90;12.80;163505.00;;;;4997408;28;20276;-75
2023/01/25 03:09:13;;;;;;;0.10;0.10;;;1.20;99.90;12.80;163505.00;;;;5000694;28;20232;-76
2023/01/25 03:11:47;;;;;;;0.10;0.10;;;1.20;99.90;12.80;163505.00;;;;4995112;28;20785;-76
2023/01/25 03:14:17;;;;;;;0.10;0.10;;;1.20;99.90;12.80;163505.00;;;;4982947;28;20197;-76
2023/01/25 03:16:45;;;;;;;0.10;0.10;;;1.20;99.90;12.80;163505.00;;;;4988610;28;20272;-76
2023/01/25 03:19:14;;;;;;;0.10;0.10;;;1.30;99.90;12.80;163505.00;;;;4998293;28;20189;-76
2023/01/25 03:21:45;;;;;;;0.10;0.10;;;1.30;99.90;12.80;163505.00;;;;4993781;28;20557;-76
2023/01/25 03:24:14;;;;;;;0.00;0.00;;;1.30;99.90;12.80;163505.00;;;;5003445;28;20209;-76
2023/01/25 03:29:39;;;;;;;0.10;0.10;;;1.30;99.90;12.80;163505.00;;;;4987162;28;20216;-76
2023/01/25 03:32:12;;;;;;;0.10;0.10;;;1.30;99.90;12.80;163505.00;;;;4994285;28;20218;-76
2023/01/25 03:34:41;;;;;;;0.10;0.10;;;1.20;99.90;12.80;163505.00;;;;4994651;28;20199;-76
2023/01/25 03:37:10;;;;;;;0.10;0.10;;;1.30;99.90;12.80;163505.00;;;;4999138;28;20206;-76
2023/01/25 03:39:39;;;;;;;0.10;0.10;;;1.20;99.90;12.80;163505.00;;;;4991435;28;20508;-75
2023/01/25 03:42:10;;;;;;;0.10;0.10;;;1.20;99.90;12.80;163505.00;;;;4985273;28;20201;-75
2023/01/25 03:44:57;;;;;;;0.10;0.10;;;1.30;99.90;12.80;163505.00;;;;4995061;28;20215;-75
2023/01/25 03:47:25;;;;;;;0.10;0.10;;;1.20;99.90;12.80;163505.00;;;;4996624;28;20293;-75
2023/01/25 03:49:54;;;;;;;0.10;0.10;;;1.20;99.90;12.80;163505.00;;;;5001789;28;20244;-76
2023/01/25 03:52:24;;;;;;;0.10;0.10;;;1.20;99.90;12.80;163505.00;;;;5011743;28;20248;-75
2023/01/25 03:54:52;;;;;;;0.10;0.10;;;1.10;99.90;12.80;163505.00;;;;5008732;28;20184;-76
2023/01/25 03:57:22;;;;;;;0.10;0.10;;;1.20;99.90;12.80;163505.00;;;;5001884;28;20204;-76
2023/01/25 03:59:55;;;;;;;0.10;0.10;;;1.20;99.90;12.80;163505.00;;;;4998672;28;20241;-76
2023/01/25 04:02:23;;;;;;;0.10;0.10;;;1.10;99.90;12.80;163505.00;;;;4999532;28;20208;-76
2023/01/25 04:04:53;;;;;;;0.10;0.10;;;1.10;99.90;12.80;163505.00;;;;5001423;28;20196;-76
2023/01/25 04:07:22;;;;;;;0.10;0.10;;;1.10;99.90;12.80;163505.00;;;;4992253;28;20686;-76
2023/01/25 04:09:50;;;;;;;0.10;0.10;;;1.10;99.90;12.80;163505.00;;;;4992877;28;20221;-76
2023/01/25 04:12:18;;;;;;;0.10;0.10;;;1.20;99.90;12.80;163505.00;;;;4987299;28;20237;-76
2023/01/25 04:14:48;;;;;;;0.10;0.10;;;1.20;99.90;12.80;163505.00;;;;4976010;28;20204;-77
2023/01/25 04:17:21;;;;;;;0.10;0.10;;;1.20;99.90;12.80;163505.00;;;;4972931;28;20200;-75
2023/01/25 04:19:54;;;;;;;0.10;0.10;;;1.20;99.90;12.80;163505.00;;;;4975886;28;20216;-76
2023/01/25 04:22:27;;;;;;;0.10;0.10;;;1.20;99.90;12.80;163505.00;;;;4972983;28;20243;-75
2023/01/25 04:24:56;;;;;;;0.10;0.10;;;1.20;99.90;12.80;163505.00;;;;4979663;28;20204;-76
2023/01/25 04:27:24;;;;;;;0.10;0.10;;;1.20;99.90;12.80;163505.00;;;;4977615;28;20197;-76
2023/01/25 04:30:13;;;;;;;0.10;0.10;;;1.20;99.90;12.80;163505.00;;;;4978059;28;20220;-74
2023/01/25 04:32:43;;;;;;;0.10;0.10;;;1.20;99.90;12.80;163505.00;;;;4971175;28;20227;-75
2023/01/25 04:35:22;;;;;;;0.10;0.10;;;1.20;99.90;12.80;163505.00;;;;4976640;28;20201;-75
2023/01/25 04:37:55;;;;;;;0.10;0.10;;;1.20;99.90;12.80;163505.00;;;;4978837;28;20210;-75
2023/01/25 04:40:26;;;;;;;0.10;0.10;;;1.20;99.90;12.80;163505.00;;;;4977813;28;20275;-75
2023/01/25 04:42:55;;;;;;;0.10;0.10;;;1.10;99.90;12.80;163505.00;;;;4980428;28;20258;-78
2023/01/25 04:45:25;;;;;;;0.10;0.10;;;1.10;99.90;12.80;163505.00;;;;4974554;28;20201;-77
2023/01/25 04:47:59;;;;;;;0.10;0.10;;;1.10;99.90;12.80;163505.00;;;;4971493;28;20197;-77
2023/01/25 04:50:31;;;;;;;0.10;0.10;;;1.10;99.90;12.80;163505.00;;;;4984520;28;20217;-76
2023/01/25 04:53:21;;;;;;;0.10;0.10;;;1.20;99.90;12.80;163505.00;;;;4993544;28;20251;-76
2023/01/25 04:55:49;;;;;;;0.10;0.10;;;1.20;99.90;12.80;163505.00;;;;5004991;28;20201;-76
2023/01/25 04:58:18;;;;;;;0.10;0.10;;;1.10;99.90;12.80;163505.00;;;;4987508;28;20204;-76
2023/01/25 05:00:47;;;;;;;0.10;0.10;;;1.10;99.90;12.80;163505.00;;;;4975995;28;20871;-76
2023/01/25 05:03:16;;;;;;;0.10;0.10;;;1.20;99.90;12.80;163505.00;;;;4999243;28;20214;-76
2023/01/25 05:05:47;;;;;;;0.10;0.10;;;1.10;99.90;12.80;163505.00;;;;4976828;28;20208;-76
2023/01/25 05:08:20;;;;;;;0.10;0.10;;;1.20;99.90;12.80;163505.00;;;;4983067;28;20204;-76
2023/01/25 05:10:48;;;;;;;0.10;0.10;;;1.20;99.90;12.80;163505.00;;;;4977514;28;20222;-76
2023/01/25 05:13:37;;;;;;;0.10;0.10;;;1.20;99.90;12.80;163505.00;;;;4978197;28;20224;-72
2023/01/25 05:16:13;;;;;;;0.10;0.10;;;1.20;99.90;12.80;163505.00;;;;4980471;28;20208;-75
2023/01/25 05:18:41;;;;;;;0.10;0.10;;;1.20;99.90;12.80;163505.00;;;;4992002;28;20203;-75
2023/01/25 05:24:07;;;;;;;0.10;0.10;;;1.10;99.90;12.80;163505.00;;;;4975383;28;20206;-75
2023/01/25 05:29:23;;;;;;;0.10;0.10;;;1.20;99.90;12.80;163505.00;;;;4986541;28;20215;-77
2023/01/25 05:32:19;;;;;;;0.10;0.10;;;1.10;99.90;12.80;163505.00;;;;4986503;28;20288;-76
2023/01/25 05:34:48;;;;;;;0.10;0.10;;;1.20;99.90;12.80;163505.00;;;;4970557;28;20204;-79
2023/01/25 05:37:22;;;;;;;0.10;0.10;;;1.20;99.90;12.80;163505.00;;;;4973047;28;20212;-76
2023/01/25 05:39:57;;;;;;;0.10;0.10;;;1.20;99.90;12.80;163505.00;;;;4975562;28;20249;-77
2023/01/25 05:42:26;;;;;;;0.20;0.20;;;1.10;99.90;12.80;163505.00;;;;4992384;28;20292;-77
2023/01/25 05:44:54;;;;;;;0.10;0.10;;;1.10;99.90;12.80;163505.00;;;;4980571;28;20701;-77
2023/01/25 05:47:24;;;;;;;0.17;0.17;;;1.10;99.90;12.80;163505.00;;;;4973738;28;20197;-76
2023/01/25 05:49:55;;;;;;;0.10;0.10;;;1.20;99.90;12.80;163505.00;;;;4976747;28;20702;-76
2023/01/25 05:52:47;;;;;;;0.10;0.10;;;1.10;99.90;12.80;163505.00;;;;4997888;28;20223;-77
2023/01/25 05:55:16;;;;;;;0.10;0.10;;;1.10;99.90;12.80;163505.00;;;;4979304;28;20228;-77
2023/01/25 05:57:45;;;;;;;0.10;0.10;;;1.10;99.90;12.80;163505.00;;;;4973577;28;20213;-76
2023/01/25 06:00:14;;;;;;;0.10;0.10;;;1.10;99.90;12.80;163505.00;;;;4986647;28;20233;-77
2023/01/25 06:02:43;;;;;;;0.10;0.10;;;1.10;99.90;12.80;163505.00;;;;4980721;28;20228;-77
2023/01/25 06:05:16;;;;;;;0.10;0.10;;;1.10;99.90;12.80;163505.00;;;;4979735;28;20730;-78
2023/01/25 06:07:44;;;;;;;0.10;0.10;;;1.10;99.90;12.80;163505.00;;;;4976105;28;20233;-77
2023/01/25 06:10:15;;;;;;;0.10;0.10;;;1.10;99.90;12.80;163505.00;;;;4981679;28;20274;-77
2023/01/25 06:12:44;;;;;;;0.10;0.10;;;1.10;99.90;12.80;163505.00;;;;4982346;28;20267;-77
2023/01/25 06:15:12;;;;;;;0.10;0.10;;;1.10;99.90;12.80;163505.00;;;;4974949;28;20205;-77
2023/01/25 06:17:42;;;;;;;0.10;0.10;;;1.20;99.90;12.80;163505.00;;;;4981277;28;20196;-76
2023/01/25 06:20:18;;;;;;;0.10;0.10;;;1.20;99.90;12.80;163505.00;;;;4990339;28;20221;-76
2023/01/25 06:23:05;;;;;;;0.10;0.10;;;1.20;99.90;12.80;163505.00;;;;4977371;28;20325;-77
2023/01/25 06:25:33;;;;;;;0.10;0.10;;;1.20;99.90;12.80;163505.00;;;;4985237;28;20228;-76
2023/01/25 06:28:01;;;;;;;0.15;0.15;;;1.20;99.90;12.80;163505.00;;;;4982668;28;20271;-76
2023/01/25 06:30:29;;;;;;;0.10;0.10;;;1.20;99.90;12.80;163505.00;;;;4981546;28;20586;-76
2023/01/25 06:33:00;;;;;;;0.10;0.10;;;1.20;99.90;12.80;163505.00;;;;4977823;28;20236;-76
2023/01/25 06:35:28;;;;;;;0.10;0.10;;;1.10;99.90;12.80;163505.00;;;;4978419;28;20708;-76
2023/01/25 06:37:57;;;;;;;0.20;0.20;;;1.10;99.90;12.80;163505.00;;;;4978330;28;20229;-76
2023/01/25 06:40:27;;;;;;;0.10;0.10;;;1.20;99.90;12.80;163505.00;;;;4981968;28;20294;-77
2023/01/25 06:42:55;;;;;;;0.10;0.10;;;1.20;99.90;12.80;163505.00;;;;4981814;28;20277;-75
2023/01/25 06:45:23;;;;;;;0.10;0.10;;;1.20;99.90;12.80;163505.00;;;;4977633;28;20197;-76
2023/01/25 06:47:51;;;;;;;0.10;0.10;;;1.20;99.90;12.80;163505.00;;;;4983450;28;20219;-77
2023/01/25 06:50:21;;;;;;;0.10;0.10;;;1.20;99.90;12.80;163505.00;;;;4985480;28;20232;-76
2023/01/25 06:52:52;;;;;;;0.10;0.10;;;1.30;99.90;12.80;163505.00;;;;4983937;28;20239;-77
2023/01/25 06:55:21;;;;;;;0.10;0.10;;;1.20;99.90;12.80;163505.00;;;;4974095;28;20232;-76
2023/01/25 06:57:49;;;;;;;0.10;0.10;;;1.20;99.90;12.80;163505.00;;;;4980024;28;20200;-77
2023/01/25 07:00:18;;;;;;;0.10;0.10;;;1.20;99.90;12.80;163505.00;;;;4977148;28;20230;-77
2023/01/25 07:02:46;;;;;;;0.10;0.10;;;1.20;99.90;12.80;163505.00;;;;4978975;28;20611;-76
2023/01/25 07:05:15;;;;;;;0.10;0.10;;;1.20;99.90;12.80;163505.00;;;;4979551;28;20613;-76
2023/01/25 07:07:46;;;;;;;0.10;0.10;;;1.20;99.90;12.80;163505.00;;;;4986174;28;20255;-75
2023/01/25 07:10:15;;;;;;;0.10;0.10;;;1.20;99.90;12.80;163505.00;;;;4976485;28;20232;-75
2023/01/25 07:12:43;;;;;;;0.13;0.13;;;1.30;99.90;12.80;163505.00;;;;4964754;28;20196;-75
2023/01/25 07:15:11;;;;;;;0.10;0.10;;;1.30;99.90;12.80;163505.00;;;;4974536;28;20205;-75
2023/01/25 07:17:39;;;;;;;0.10;0.10;;;1.30;99.90;12.80;163505.00;;;;4962071;28;20197;-75
2023/01/25 07:20:09;;;;;;;0.10;0.10;;;1.20;99.90;12.80;163505.00;;;;4968175;28;20217;-75
2023/01/25 07:22:37;;;;;;;0.08;0.08;;;1.30;99.90;12.80;163505.00;;;;4972955;28;20689;-75
2023/01/25 07:25:07;;;;;;;0.10;0.10;;;1.20;99.90;12.80;163505.00;;;;4976387;28;20647;-75
2023/01/25 07:27:36;;;;;;;0.10;0.10;;;1.30;99.90;12.80;163505.00;;;;4983977;28;20200;-75
2023/01/25 07:30:05;;;;;;;0.20;0.20;;;1.20;99.90;12.80;163505.00;;;;4971742;28;20749;-76
2023/01/25 07:32:33;;;;;;;0.10;0.10;;;1.20;99.90;12.80;163505.00;;;;4977608;28;20646;-75
2023/01/25 07:35:01;;;;;;;0.10;0.10;;;1.30;99.90;12.80;163505.00;;;;4971000;28;20244;-75
2023/01/25 07:37:29;;;;;;;0.10;0.10;;;1.30;99.90;12.80;163505.00;;;;4973355;28;20297;-75
2023/01/25 07:39:57;;;;;;;0.10;0.10;;;1.30;99.90;12.80;163505.00;;;;4977350;28;20332;-75
2023/01/25 07:42:26;;;;;;;0.10;0.10;;;1.30;99.90;12.80;163505.00;;;;4977122;28;20201;-75
2023/01/25 07:45:11;;;;;;;0.10;0.10;;;1.30;99.90;12.80;163505.00;;;;4970312;28;20667;-75
2023/01/25 07:47:40;;;;;;;0.10;0.10;;;1.30;99.90;12.80;163505.00;;;;4967862;28;20323;-75
2023/01/25 07:50:10;;;;;;;0.10;0.10;;;1.30;99.90;12.80;163505.00;;;;4984987;28;20227;-75
2023/01/25 07:52:38;;;;;;;0.10;0.10;;;1.40;99.90;12.80;163505.00;;;;4984578;28;20207;-75
2023/01/25 07:55:08;;;;;;;0.10;0.10;;;1.40;99.90;12.80;163505.00;;;;4984588;28;20228;-75
2023/01/25 07:57:37;;;;;;;0.10;0.10;;;1.40;99.90;12.80;163505.00;;;;4969042;28;20201;-75
2023/01/25 08:00:09;;;;;;;0.10;0.10;;;1.40;99.90;12.80;163505.00;;;;4971718;28;20420;-75
2023/01/25 08:02:39;;;;;;;0.10;0.10;;;1.40;99.90;12.80;163505.00;;;;4970710;28;20312;-75
2023/01/25 08:05:08;;;;;;;0.10;0.10;;;1.40;99.90;12.80;163505.00;;;;4972256;28;20225;-75
2023/01/25 08:07:36;;;;;;;0.10;0.10;;;1.40;99.90;12.80;163505.00;;;;4976284;28;20205;-75
2023/01/25 08:10:06;;;;;;;0.10;0.10;;;1.30;99.90;12.80;163505.00;;;;4974702;28;20221;-75
2023/01/25 08:12:34;;;;;;;0.10;0.10;;;1.30;99.90;12.80;163505.00;;;;4973141;28;20230;-75
2023/01/25 08:15:04;;;;;;;0.10;0.10;;;1.30;99.90;12.80;163505.00;;;;4967765;28;20649;-75
2023/01/25 08:17:33;;;;;;;0.10;0.10;;;1.40;99.90;12.80;163505.00;;;;4970393;28;20251;-75
2023/01/25 08:20:01;;;;;;;0.10;0.10;;;1.30;99.90;12.80;163505.00;;;;4972149;28;20698;-75
2023/01/25 08:22:29;;;;;;;0.10;0.10;;;1.40;99.90;12.80;163505.00;;;;4968145;28;20569;-75
2023/01/25 08:24:59;;;;;;;0.10;0.10;;;1.40;99.90;12.80;163505.00;;;;4973506;28;20197;-75
2023/01/25 08:27:28;;;;;;;0.10;0.10;;;1.40;99.90;12.80;163505.00;;;;4978465;28;20204;-75
2023/01/25 08:29:56;;;;;;;0.10;0.10;;;1.40;99.90;12.80;163505.00;;;;4976679;28;20658;-75
2023/01/25 08:32:25;;;;;;;0.00;0.00;;;1.50;99.90;12.80;163505.00;;;;4968989;28;20252;-75
2023/01/25 08:34:53;;;;;;;0.10;0.10;;;1.50;99.90;12.80;163505.00;;;;4983299;28;20213;-75
2023/01/25 08:37:21;;;;;;;0.10;0.10;;;1.60;99.90;12.80;163505.00;;;;4976935;28;20193;-75
2023/01/25 08:39:49;;;;;;;0.10;0.10;;;1.50;99.90;12.80;163505.00;;;;4975363;28;20304;-75
2023/01/25 08:42:17;;;;;;;0.10;0.10;;;1.50;99.90;12.80;163505.00;;;;4969960;28;20224;-75
2023/01/25 08:44:45;;;;;;;0.10;0.10;;;1.60;99.90;12.80;163505.00;;;;4972834;28;20201;-75
2023/01/25 08:47:12;;;;;;;0.10;0.10;;;1.60;99.90;12.80;163505.00;;;;4975162;28;20202;-75
2023/01/25 08:49:42;;;;;;;0.10;0.10;;;1.60;99.90;12.80;163505.00;;;;4971177;28;20259;-75
2023/01/25 08:52:13;;;;;;;0.10;0.10;;;1.60;99.90;12.80;163505.00;;;;4972428;28;20204;-75
2023/01/25 08:54:43;;;;;;;0.10;0.10;;;1.60;99.90;12.80;163505.00;;;;4969588;28;20227;-75
2023/01/25 08:57:11;;;;;;;0.10;0.10;;;1.50;99.90;12.80;163505.00;;;;4975446;28;20212;-75
2023/01/25 08:59:39;;;;;;;0.10;0.10;;;1.60;99.90;12.80;163505.00;;;;4980910;28;20224;-75
2023/01/25 09:02:10;;;;;;;0.10;0.10;;;1.70;99.90;12.80;163505.00;;;;4975266;28;20194;-75
2023/01/25 09:04:38;;;;;;;0.10;0.10;;;1.60;99.90;12.80;163505.00;;;;4981341;28;20207;-75
2023/01/25 09:07:08;;;;;;;0.10;0.10;;;1.50;99.90;12.80;163505.00;;;;4975233;28;20204;-75
2023/01/25 09:09:36;;;;;;;0.10;0.10;;;1.30;99.90;12.80;163505.00;;;;4971724;28;20221;-75
2023/01/25 09:12:05;;;;;;;0.10;0.10;;;1.30;99.90;12.80;163505.00;;;;4972008;28;20229;-75
2023/01/25 09:14:33;;;;;;;0.00;0.00;;;1.30;99.90;12.80;163505.00;;;;4974755;28;20248;-74
2023/01/25 09:17:01;;;;;;;0.10;0.10;;;1.40;99.90;12.80;163505.00;;;;4975547;28;20337;-75
2023/01/25 09:19:29;;;;;;;0.10;0.10;;;1.40;99.90;12.80;163505.00;;;;4975589;28;20268;-75
2023/01/25 09:21:57;;;;;;;0.10;0.10;;;1.40;99.90;12.80;163505.00;;;;4974127;28;20193;-75
2023/01/25 09:24:26;;;;;;;0.10;0.10;;;1.40;99.90;12.80;163505.00;;;;4980087;28;20626;-75
2023/01/25 09:26:54;;;;;;;0.10;0.10;;;1.40;99.90;12.80;163505.00;;;;4971174;28;20205;-75
2023/01/25 09:29:27;;;;;;;0.10;0.10;;;1.40;99.90;12.80;163505.00;;;;4973613;28;20232;-75
2023/01/25 09:31:55;;;;;;;0.10;0.10;;;1.30;99.90;12.80;163505.00;;;;4976162;28;20201;-75
2023/01/25 09:34:31;;;;;;;0.10;0.10;;;1.30;99.90;12.80;163505.00;;;;4988211;28;20283;-75
2023/01/25 09:36:59;;;;;;;0.00;0.00;;;1.40;99.90;12.80;163505.00;;;;4974985;28;20557;-76
2023/01/25 09:39:29;;;;;;;0.10;0.10;;;1.40;99.90;12.80;163505.00;;;;4982447;28;20228;-75
2023/01/25 09:42:46;;;;;;;0.10;0.10;;;1.50;99.90;12.80;163505.00;;;;4977079;28;20196;-75
2023/01/25 09:45:30;;;;;;;0.10;0.10;;;1.50;99.90;12.80;163505.00;;;;4969418;28;20224;-75
2023/01/25 09:48:09;;;;;;;0.10;0.10;;;1.50;99.90;12.80;163505.00;;;;4979437;28;20209;-75
2023/01/25 09:50:44;;;;;;;0.10;0.10;;;1.50;99.90;12.80;163505.00;;;;4979247;28;20223;-75
2023/01/25 09:53:34;;;;;;;0.10;0.10;;;1.50;99.90;12.80;163505.00;;;;4982742;28;20196;-75
2023/01/25 09:56:13;;;;;;;0.10;0.10;;;1.50;99.90;12.80;163505.00;;;;4974529;28;20228;-75
2023/01/25 09:58:46;;;;;;;0.10;0.10;;;1.50;99.90;12.80;163505.00;;;;4970891;28;20188;-75
2023/01/25 10:01:41;;;;;;;0.00;0.00;;;1.40;99.90;12.80;163505.00;;;;4978793;28;20614;-75
2023/01/25 10:04:17;;;;;;;0.10;0.10;;;1.50;99.90;12.80;163505.00;;;;4987736;28;20256;-75
2023/01/25 10:06:52;;;;;;;0.10;0.10;;;1.50;99.90;12.80;163505.00;;;;4983664;28;20267;-74
2023/01/25 10:09:40;;;;;;;0.10;0.10;;;1.50;99.90;12.80;163505.00;;;;5004373;28;20228;-75
2023/01/25 10:12:19;;;;;;;0.10;0.10;;;1.50;99.90;12.80;163505.00;;;;4984820;28;20204;-75
2023/01/25 10:14:48;;;;;;;0.10;0.10;;;1.50;99.90;12.80;163505.00;;;;4980691;28;20266;-74
2023/01/25 10:17:31;;;;;;;0.10;0.10;;;1.50;99.90;12.80;163505.00;;;;4983609;28;20216;-74
2023/01/25 10:20:24;;;;;;;0.10;0.10;;;1.60;99.90;12.80;163505.00;;;;4982129;28;20222;-75
2023/01/25 10:23:07;;;;;;;0.10;0.10;;;1.60;99.90;12.80;163505.00;;;;4980607;28;20275;-75
2023/01/25 10:25:43;;;;;;;0.10;0.10;;;1.60;99.90;12.80;163505.00;;;;4986801;28;20200;-75
2023/01/25 10:28:35;;;;;;;0.00;0.00;;;1.60;99.90;12.80;163505.00;;;;4984397;28;20649;-75
2023/01/25 10:31:07;;;;;;;0.05;0.05;;;1.60;99.90;12.80;163505.00;;;;4974658;28;20225;-75
2023/01/25 10:33:43;;;;;;;0.10;0.10;;;1.60;99.90;12.80;163505.00;;;;4985435;28;20643;-75
2023/01/25 10:36:15;;;;;;;0.10;0.10;;;1.60;99.90;12.80;163505.00;;;;4989126;28;20224;-75
2023/01/25 10:38:46;;;;;;;0.10;0.10;;;1.50;99.90;12.80;163505.00;;;;4981307;28;20213;-75
2023/01/25 10:41:23;;;;;;;0.10;0.10;;;1.50;99.90;12.80;163505.00;;;;4982455;28;20232;-75
2023/01/25 10:44:20;;;;;;;0.10;0.10;;;1.50;99.90;12.80;163505.00;;;;4979288;28;20259;-74
2023/01/25 10:46:52;;;;;;;0.20;0.20;;;1.50;99.90;12.80;163505.00;;;;4983662;28;20205;-75
2023/01/25 10:49:28;;;;;;;0.10;0.10;;;1.50;99.90;12.80;163505.00;;;;4975811;28;20197;-75
2023/01/25 10:51:57;;;;;;;0.10;0.10;;;1.50;99.90;12.80;163505.00;;;;4968833;28;20255;-75
2023/01/25 10:54:25;;;;;;;0.10;0.10;;;1.60;99.90;12.80;163505.00;;;;4976535;28;20205;-75
2023/01/25 10:56:54;;;;;;;0.10;0.10;;;1.60;99.90;12.80;163505.00;;;;4977514;28;20248;-75
2023/01/25 10:59:28;;;;;;;0.10;0.10;;;1.60;99.90;12.80;163505.00;;;;4985769;28;20197;-75
2023/01/25 11:02:01;;;;;;;0.10;0.10;;;1.60;99.90;12.80;163505.00;;;;4975616;28;20203;-75
2023/01/25 11:04:34;;;;;;;0.20;0.20;;;1.60;99.90;12.80;163505.00;;;;4997567;28;20681;-75
2023/01/25 11:07:04;;;;;;;0.10;0.10;;;1.50;99.90;12.80;163505.00;;;;4970075;28;20260;-75
2023/01/25 11:09:37;;;;;;;0.10;0.10;;;1.60;99.90;12.80;163505.00;;;;4980770;28;20225;-75
2023/01/25 11:12:18;;;;;;;0.10;0.10;;;1.60;99.90;12.80;163505.00;;;;4979554;28;20646;-75
2023/01/25 11:14:49;;;;;;;0.10;0.10;;;1.60;99.90;12.80;163505.00;;;;4981894;28;20209;-75
2023/01/25 11:17:25;;;;;;;0.10;0.10;;;1.70;99.90;12.80;163505.00;;;;4980474;28;20255;-75
2023/01/25 11:20:18;;;;;;;0.10;0.10;;;1.70;99.90;12.80;163505.00;;;;4970948;28;20590;-75
2023/01/25 11:22:51;;;;;;;0.13;0.13;;;1.60;99.90;12.80;163505.00;;;;4979132;28;20227;-75
2023/01/25 11:25:29;;;;;;;0.10;0.10;;;1.60;99.90;12.80;163505.00;;;;4978044;28;20197;-75